Melk, Austria
Current Conditions -  °F | °C
As of 8:20 AM on Thursday 23 Oct 2014 (Local Time) from LOXT Reporting Station
Drizzle Drizzle  
Wind Chill: 42°   Ceiling: 800
Heat Index: 45°   Visibility: 0.68mi
Dew Point: 45°   Wind: 5mph
Humidity: 100%   Direction: 270°W
Pressure: 29.8"   Gusts: NA
Location:  48.22°N, 15.32°E
Report Text: LOXT 230620Z 27004KT 1100 -DZ BR OVC008ST 07/07 Q1009 TEMPO BKN007 RMK OVC
Loading
Personal Weather Stations






























Interactive Weather Map
Tropical Storm Tracking
New forecast layout! Learn more

10-Day Weather Forecast

Advertisements
Track Severe Weather on mobile